Montrose, SD (57048)

9:30 AM CDT on August 02, 2015 (GMT -0500)
Canistota,SD | | Change Station
CLOSE
Current Station
Personal Weather Station
Location: Canistota, SD
Elevation: 1549 ft
Nearby Weather Stations

Elev 1549 ft 43.60 °N, 97.29 °W | Updated 17 seconds ago

Clear
Clear
72.7 °F
Feels Like 73 °F
N
1.6
Wind Variable Wind from South
Gusts 1.6 mph

Today
High -- | Low -- °F
--% Chance of Precip.
Yesterday
High -- | Low -- °F
Precip. -- in
6:18 AM 8:50 PM
Waning Gibbous, 93% visible
Pressure 29.78 in
Visibility 10.0 miles
Clouds Clear
Heat Index 73 °F
Dew Point 66 °F
Humidity 81%
Rainfall 0.00 in
Snow Depth Not available.
UV 3 out of 12
Pollen 7.00 out of 12
Air Quality Not available.
Flu Activity Not available.
METAR KMDS 021410Z AUTO 28008KT 10SM CLR 22/18 A2978 RMK AO2

More Conditions Fewer Conditions

Pressure 29.78 in
Visibility 10.0 miles
Clouds Clear
Heat Index 73 °F
Dew Point 66 °F
Humidity 81%
Rainfall 0.00 in
Snow Depth Not available.
UV 3 out of 12
Pollen 7.00 out of 12
Air Quality Not available.
Flu Activity Not available.
METAR KMDS 021410Z AUTO 28008KT 10SM CLR 22/18 A2978 RMK AO2

More Conditions Fewer Conditions

10-Day Weather Forecast

×

Almanac

Astronomy

Aug. 02, 2015 Rise Set
Actual Time
Civil Twilight
Nautical Twilight
Astronomical Twilight
Moon
Length of Visible Light
Length of Day
Tomorrow will be .
, % of the Moon is Illuminated

Today's Extremes

State Highs State Lows

Community

WunderPhotos

Upload Photos

1,843,262 photos uploaded!

WunderBlogs® & News

Nearby

Air Quality

  Air Quality AQ Index Pollutant
Not available.

Snow Depth

Station Depth Elevation

Earthquake Activity

City Distance Mag. Time & Date
Minimum magnitude displayed is 2.5.

Coastal Water Temperatures

Place Temperature

Stations

Nearby Weather Stations

Station Location Temp. Windchill Dew Point Humidity Wind Precip. Elev Updated Type